createdAt,value
2023-05-12T00:02:28.921Z,47.00
2023-05-12T00:05:30.926Z,47.00
2023-05-12T00:08:32.455Z,47.10
2023-05-12T00:11:35.485Z,47.10
2023-05-12T00:14:38.460Z,46.90
2023-05-12T00:17:39.904Z,47.00
2023-05-12T00:20:42.008Z,47.20
2023-05-12T00:23:43.398Z,47.10
2023-05-12T00:26:47.749Z,47.20
2023-05-12T00:29:49.315Z,47.60
2023-05-12T00:32:51.136Z,47.50
2023-05-12T00:35:53.207Z,47.40
2023-05-12T00:38:55.471Z,47.60
2023-05-12T00:41:58.234Z,47.60
2023-05-12T00:44:59.723Z,47.50
2023-05-12T00:48:01.183Z,47.70
2023-05-12T00:51:05.393Z,47.60
2023-05-12T00:54:06.866Z,47.50
2023-05-12T00:57:08.211Z,47.90
2023-05-12T01:00:11.053Z,48.00
2023-05-12T01:03:14.803Z,47.40
2023-05-12T01:06:24.341Z,47.50
2023-05-12T01:09:26.518Z,47.40
2023-05-12T01:12:31.429Z,47.50
2023-05-12T01:15:33.517Z,47.40
2023-05-12T01:18:40.197Z,47.40
2023-05-12T01:21:42.396Z,47.20
2023-05-12T01:24:53.655Z,47.30
2023-05-12T01:27:55.916Z,47.20
2023-05-12T01:30:57.922Z,47.10
2023-05-12T01:34:00.008Z,47.20
2023-05-12T01:37:01.656Z,47.30
2023-05-12T01:40:06.064Z,47.50
2023-05-12T01:43:08.240Z,47.40
2023-05-12T01:46:11.776Z,47.40
2023-05-12T01:49:18.010Z,47.50
2023-05-12T01:52:21.075Z,47.50
2023-05-12T01:55:22.370Z,47.70
2023-05-12T01:58:28.054Z,47.60
2023-05-12T02:01:31.485Z,47.50
2023-05-12T02:04:33.785Z,47.80
2023-05-12T02:07:37.378Z,47.80
2023-05-12T02:10:38.813Z,47.70
2023-05-12T02:13:41.543Z,47.90
2023-05-12T02:16:43.137Z,47.20
2023-05-12T02:19:45.323Z,47.60
2023-05-12T02:22:49.463Z,47.80
2023-05-12T02:25:50.786Z,47.70
2023-05-12T02:28:53.676Z,48.00
2023-05-12T02:31:57.064Z,47.70
2023-05-12T02:35:00.205Z,47.90
2023-05-12T02:38:04.306Z,46.80
2023-05-12T02:41:06.990Z,47.80
2023-05-12T02:44:09.402Z,48.00
2023-05-12T02:47:11.368Z,47.90
2023-05-12T02:50:12.733Z,47.80
2023-05-12T02:53:14.188Z,47.90
2023-05-12T02:56:16.964Z,47.80
2023-05-12T02:59:18.972Z,48.10
2023-05-12T03:02:20.571Z,47.90
2023-05-12T03:05:22.178Z,48.00
2023-05-12T03:08:25.017Z,47.90
2023-05-12T03:11:29.566Z,47.80
2023-05-12T03:14:31.765Z,47.50
2023-05-12T03:17:33.581Z,47.80
2023-05-12T03:20:35.075Z,47.70
2023-05-12T03:23:36.621Z,47.80
2023-05-12T03:26:38.086Z,47.90
2023-05-12T03:29:40.409Z,47.90
2023-05-12T03:32:43.530Z,47.70
2023-05-12T03:35:47.627Z,47.50
2023-05-12T03:38:49.203Z,47.90
2023-05-12T03:41:50.499Z,47.70
2023-05-12T03:44:53.977Z,48.10
2023-05-12T03:47:56.507Z,47.70
2023-05-12T03:50:57.940Z,47.80
2023-05-12T03:53:59.331Z,47.90
2023-05-12T03:57:02.501Z,47.80
2023-05-12T04:00:05.538Z,47.70
2023-05-12T04:03:14.674Z,47.30
2023-05-12T04:06:16.143Z,47.70
2023-05-12T04:09:17.419Z,47.70
2023-05-12T04:12:19.224Z,47.60
2023-05-12T04:15:21.314Z,47.90
2023-05-12T04:18:22.919Z,47.80
2023-05-12T04:21:24.401Z,47.80
2023-05-12T04:24:27.067Z,47.90
2023-05-12T04:27:28.514Z,48.00
2023-05-12T04:30:30.362Z,48.00
2023-05-12T04:33:32.218Z,48.50
2023-05-12T04:36:33.877Z,48.20
2023-05-12T04:39:36.035Z,48.30
2023-05-12T04:42:37.630Z,48.50
2023-05-12T04:45:41.931Z,48.80
2023-05-12T04:48:43.744Z,48.90
2023-05-12T04:51:45.100Z,49.10
2023-05-12T04:54:46.479Z,49.10
2023-05-12T04:57:47.887Z,49.50
2023-05-12T05:00:50.657Z,49.10
2023-05-12T05:03:52.499Z,49.40
2023-05-12T05:06:55.041Z,49.50
2023-05-12T05:09:57.567Z,49.60
2023-05-12T05:12:59.072Z,49.70
2023-05-12T05:16:02.881Z,49.60
2023-05-12T05:19:15.178Z,48.70
2023-05-12T05:22:23.501Z,49.70
2023-05-12T05:25:26.113Z,49.80
2023-05-12T05:28:27.601Z,49.80
2023-05-12T05:31:29.588Z,49.60
2023-05-12T05:34:32.298Z,49.90
2023-05-12T05:37:34.731Z,49.80
2023-05-12T05:40:48.695Z,50.00
2023-05-12T05:43:53.381Z,50.30
2023-05-12T05:46:58.201Z,49.90
2023-05-12T05:50:00.867Z,49.90
2023-05-12T05:53:03.102Z,50.00
2023-05-12T05:56:05.951Z,49.90
2023-05-12T05:59:07.490Z,48.50
2023-05-12T06:02:09.545Z,50.10
2023-05-12T06:05:12.993Z,52.00
2023-05-12T06:08:16.039Z,51.90
2023-05-12T06:11:18.010Z,51.70
2023-05-12T06:14:19.407Z,52.10
2023-05-12T06:17:21.387Z,51.80
2023-05-12T06:20:24.327Z,52.00
2023-05-12T06:23:25.641Z,50.30
2023-05-12T06:26:26.996Z,52.00
2023-05-12T06:29:30.935Z,51.70
2023-05-12T06:32:33.148Z,52.00
2023-05-12T06:35:35.665Z,51.50
2023-05-12T06:38:40.161Z,51.60
2023-05-12T06:41:41.508Z,51.70
2023-05-12T06:44:47.391Z,51.80
2023-05-12T06:47:49.640Z,51.60
2023-05-12T06:50:51.126Z,50.90
2023-05-12T06:53:52.877Z,51.70
2023-05-12T06:56:54.188Z,50.60
2023-05-12T06:59:55.465Z,51.50
2023-05-12T07:02:57.319Z,51.70
2023-05-12T07:05:58.794Z,51.50
2023-05-12T07:09:03.537Z,51.30
2023-05-12T07:12:06.193Z,49.50
2023-05-12T07:15:09.520Z,51.70
2023-05-12T07:18:11.425Z,51.80
2023-05-12T07:21:13.711Z,51.00
2023-05-12T07:24:15.886Z,50.90
2023-05-12T07:27:20.668Z,51.50
2023-05-12T07:30:21.962Z,49.00
2023-05-12T07:33:25.205Z,51.60
2023-05-12T07:36:27.467Z,51.40
2023-05-12T07:39:31.410Z,51.70
2023-05-12T07:42:34.283Z,51.30
2023-05-12T07:45:37.102Z,49.20
2023-05-12T07:49:03.813Z,49.10
2023-05-12T07:52:06.186Z,49.70
2023-05-12T07:55:15.020Z,50.80
2023-05-12T07:58:16.856Z,49.40
2023-05-12T08:01:18.203Z,53.00
2023-05-12T08:04:20.482Z,51.40
2023-05-12T08:07:22.962Z,52.70
2023-05-12T08:10:29.214Z,50.50
2023-05-12T08:13:30.789Z,52.00
2023-05-12T08:16:35.063Z,51.90
2023-05-12T08:19:37.700Z,51.80
2023-05-12T08:22:41.291Z,48.80
2023-05-12T08:25:43.669Z,49.20
2023-05-12T08:28:52.065Z,51.50
2023-05-12T08:31:53.747Z,49.40
2023-05-12T08:34:55.120Z,52.30
2023-05-12T08:37:58.590Z,52.40
2023-05-12T08:41:07.819Z,50.90
2023-05-12T08:44:09.381Z,51.30
2023-05-12T08:47:17.583Z,50.80
2023-05-12T08:50:22.813Z,51.00
2023-05-12T08:53:25.244Z,48.90
2023-05-12T08:59:48.496Z,51.10
2023-05-12T09:02:54.385Z,52.20
2023-05-12T09:05:57.496Z,50.70
2023-05-12T09:08:59.747Z,51.50
2023-05-12T09:12:02.072Z,50.40
2023-05-12T09:15:04.175Z,51.80
2023-05-12T09:18:07.342Z,50.60
2023-05-12T09:21:09.118Z,51.40
2023-05-12T09:24:11.001Z,51.00
2023-05-12T09:27:14.798Z,52.00
2023-05-12T09:30:16.304Z,52.80
2023-05-12T09:33:17.892Z,51.80
2023-05-12T09:36:22.582Z,50.40
2023-05-12T09:39:29.147Z,51.30
2023-05-12T09:42:31.431Z,49.00
2023-05-12T09:45:34.638Z,50.60
2023-05-12T09:48:38.465Z,51.70
2023-05-12T09:51:40.670Z,51.30
2023-05-12T09:54:42.714Z,51.80
2023-05-12T09:57:44.615Z,50.80
2023-05-12T10:03:51.150Z,51.30
2023-05-12T10:06:56.569Z,50.00
2023-05-12T10:09:59.619Z,50.70
2023-05-12T10:13:00.963Z,50.30
2023-05-12T10:16:04.340Z,51.40
2023-05-12T10:19:05.950Z,50.00
2023-05-12T10:22:10.022Z,51.30
2023-05-12T10:25:22.879Z,51.30
2023-05-12T10:28:24.344Z,50.10
2023-05-12T10:31:29.057Z,52.00
2023-05-12T10:34:33.148Z,50.90
2023-05-12T10:37:34.629Z,48.60
2023-05-12T10:40:36.873Z,51.20
2023-05-12T10:43:39.260Z,50.10
2023-05-12T10:46:41.535Z,50.70
2023-05-12T10:49:43.992Z,50.00
2023-05-12T10:52:52.482Z,51.20
2023-05-12T10:55:58.712Z,48.60
2023-05-12T10:59:12.687Z,50.30
2023-05-12T11:02:16.697Z,49.00
2023-05-12T11:05:18.599Z,49.50
2023-05-12T11:08:20.300Z,51.60
2023-05-12T11:11:24.383Z,50.20
2023-05-12T11:14:27.247Z,48.30
2023-05-12T11:17:29.423Z,48.60
2023-05-12T11:20:32.675Z,50.10
2023-05-12T11:23:33.970Z,47.30
2023-05-12T11:26:35.943Z,50.10
2023-05-12T11:29:39.201Z,49.50
2023-05-12T11:32:40.992Z,50.80
2023-05-12T11:35:42.376Z,50.10
2023-05-12T11:38:48.860Z,50.70
2023-05-12T11:41:59.313Z,49.10
2023-05-12T11:45:07.460Z,49.00
2023-05-12T11:48:10.598Z,49.70
2023-05-12T11:51:11.933Z,49.20
2023-05-12T11:54:14.235Z,49.80
2023-05-12T11:57:30.869Z,49.10
2023-05-12T12:00:33.379Z,48.40
2023-05-12T12:03:45.734Z,50.00
2023-05-12T12:06:48.198Z,49.00
2023-05-12T12:09:50.727Z,49.20
2023-05-12T12:12:53.651Z,48.10
2023-05-12T12:16:02.889Z,48.70
2023-05-12T12:19:04.275Z,48.80
2023-05-12T12:22:07.099Z,50.30
2023-05-12T12:25:08.687Z,48.60
2023-05-12T12:28:10.232Z,48.50
2023-05-12T12:31:27.915Z,48.60
2023-05-12T12:34:58.756Z,46.60
2023-05-12T12:38:00.712Z,46.70
2023-05-12T12:41:02.367Z,48.60
2023-05-12T12:44:04.478Z,48.40
2023-05-12T12:47:08.876Z,47.60
2023-05-12T12:50:10.734Z,46.70
2023-05-12T12:53:12.769Z,47.90
2023-05-12T12:56:14.840Z,46.50
2023-05-12T12:59:16.161Z,48.40
2023-05-12T13:02:17.508Z,47.70
2023-05-12T13:05:19.062Z,47.70
2023-05-12T13:08:46.734Z,47.60
2023-05-12T13:11:49.428Z,46.50
2023-05-12T13:14:50.909Z,47.20
2023-05-12T13:18:17.706Z,47.40
2023-05-12T13:21:23.386Z,46.40
2023-05-12T13:24:25.482Z,47.10
2023-05-12T13:27:27.308Z,47.40
2023-05-12T13:30:31.366Z,47.40
2023-05-12T13:33:33.158Z,47.30
2023-05-12T13:36:34.810Z,47.30
2023-05-12T13:39:36.189Z,47.30
2023-05-12T13:42:38.030Z,47.10
2023-05-12T13:45:39.734Z,47.20
2023-05-12T13:48:41.165Z,47.70
2023-05-12T13:51:43.295Z,48.40
2023-05-12T13:54:50.446Z,51.50
2023-05-12T13:57:53.053Z,47.80
2023-05-12T14:00:54.453Z,46.30
2023-05-12T14:03:58.232Z,47.60
2023-05-12T14:07:02.810Z,48.30
2023-05-12T14:10:05.069Z,47.90
2023-05-12T14:13:10.347Z,46.30
2023-05-12T14:16:13.592Z,47.40
2023-05-12T14:19:15.429Z,49.40
2023-05-12T14:22:25.338Z,47.20
2023-05-12T14:25:30.193Z,47.10
2023-05-12T14:28:32.545Z,47.90
2023-05-12T14:31:34.349Z,47.50
2023-05-12T14:34:36.506Z,49.00
2023-05-12T14:37:41.592Z,47.30
2023-05-12T14:41:58.825Z,48.10
2023-05-12T14:45:19.522Z,47.20
2023-05-12T14:48:22.202Z,48.00
2023-05-12T14:51:23.986Z,47.80
2023-05-12T14:54:26.185Z,49.50
2023-05-12T14:57:31.074Z,48.60
2023-05-12T15:00:33.778Z,49.70
2023-05-12T15:03:37.305Z,46.30
2023-05-12T15:06:39.227Z,49.00
2023-05-12T15:09:40.837Z,50.00
2023-05-12T15:12:42.379Z,49.80
2023-05-12T15:15:46.062Z,48.20
2023-05-12T15:18:48.083Z,47.40
2023-05-12T15:21:49.743Z,49.30
2023-05-12T15:24:55.577Z,48.60
2023-05-12T15:27:57.655Z,46.60
2023-05-12T15:31:04.531Z,47.50
2023-05-12T15:34:06.635Z,47.80
2023-05-12T15:37:13.847Z,48.60
2023-05-12T15:40:15.750Z,46.50
2023-05-12T15:43:30.454Z,49.50
2023-05-12T15:46:37.343Z,46.90
2023-05-12T15:49:40.456Z,48.10
2023-05-12T15:52:42.993Z,47.00
2023-05-12T15:55:46.458Z,47.50
2023-05-12T15:58:48.978Z,47.90
2023-05-12T16:01:52.545Z,49.00
2023-05-12T16:04:56.054Z,46.80
2023-05-12T16:07:58.281Z,48.70
2023-05-12T16:11:00.589Z,47.70
2023-05-12T16:14:03.028Z,48.10
2023-05-12T16:17:11.882Z,46.80
2023-05-12T16:20:17.159Z,45.80
2023-05-12T16:23:22.639Z,45.20
2023-05-12T16:26:24.262Z,48.20
2023-05-12T16:29:26.045Z,47.80
2023-05-12T16:32:29.197Z,49.50
2023-05-12T16:35:31.290Z,48.20
2023-05-12T16:38:35.428Z,48.00
2023-05-12T16:41:37.042Z,49.20
2023-05-12T16:44:39.240Z,48.30
2023-05-12T16:47:43.357Z,46.10
2023-05-12T16:50:45.744Z,48.70
2023-05-12T16:53:47.533Z,49.60
2023-05-12T16:56:51.950Z,49.90
2023-05-12T16:59:53.385Z,49.00
2023-05-12T17:02:56.034Z,49.20
2023-05-12T17:06:00.538Z,48.60
2023-05-12T17:09:02.108Z,48.80
2023-05-12T17:12:04.243Z,48.70
2023-05-12T17:15:08.352Z,49.20
2023-05-12T17:18:12.050Z,47.30
2023-05-12T17:21:15.940Z,46.90
2023-05-12T17:24:17.360Z,49.90
2023-05-12T17:27:18.828Z,49.00
2023-05-12T17:30:20.716Z,49.10
2023-05-12T17:33:23.277Z,49.40
2023-05-12T17:36:24.694Z,47.60
2023-05-12T17:39:26.126Z,49.60
2023-05-12T17:42:30.434Z,50.20
2023-05-12T17:45:34.759Z,49.80
2023-05-12T17:48:37.708Z,49.60
2023-05-12T17:51:39.455Z,47.70
2023-05-12T17:54:41.082Z,49.10
2023-05-12T17:57:43.148Z,49.10
2023-05-12T18:00:45.972Z,49.40
2023-05-12T18:03:48.214Z,51.00
2023-05-12T18:06:49.897Z,47.70
2023-05-12T18:09:51.647Z,49.90
2023-05-12T18:12:56.122Z,50.90
2023-05-12T18:15:57.855Z,48.50
2023-05-12T18:19:00.265Z,49.50
2023-05-12T18:22:02.202Z,48.80
2023-05-12T18:25:04.314Z,48.60
2023-05-12T18:28:06.943Z,49.50
2023-05-12T18:31:15.866Z,49.80
2023-05-12T18:34:19.360Z,50.10
2023-05-12T18:37:21.311Z,48.80
2023-05-12T18:40:24.783Z,51.90
2023-05-12T18:43:26.921Z,48.00
2023-05-12T18:46:28.454Z,48.10
2023-05-12T18:49:31.007Z,48.60
2023-05-12T18:52:34.485Z,47.80
2023-05-12T18:55:36.388Z,48.00
2023-05-12T18:58:41.011Z,49.80
2023-05-12T19:01:42.687Z,49.70
2023-05-12T19:04:46.593Z,49.00
2023-05-12T19:07:48.710Z,49.90
2023-05-12T19:10:50.567Z,49.70
2023-05-12T19:13:53.143Z,50.90
2023-05-12T19:16:58.987Z,47.70
2023-05-12T19:20:02.040Z,50.40
2023-05-12T19:23:04.425Z,49.70
2023-05-12T19:26:15.668Z,49.60
2023-05-12T19:29:21.653Z,49.80
2023-05-12T19:32:22.935Z,49.20
2023-05-12T19:35:24.850Z,49.10
2023-05-12T19:38:26.132Z,48.90
2023-05-12T19:41:27.974Z,49.30
2023-05-12T19:44:30.182Z,49.10
2023-05-12T19:47:32.563Z,49.20
2023-05-12T19:50:34.638Z,49.20
2023-05-12T19:53:36.056Z,49.60
2023-05-12T19:56:37.396Z,49.20
2023-05-12T19:59:38.726Z,49.30
2023-05-12T20:02:40.833Z,49.10
2023-05-12T20:05:42.923Z,49.40
2023-05-12T20:08:44.701Z,49.60
2023-05-12T20:11:46.062Z,49.60
2023-05-12T20:14:47.596Z,49.40
2023-05-12T20:17:50.636Z,49.70
2023-05-12T20:20:52.514Z,49.50
2023-05-12T20:23:53.943Z,49.60
2023-05-12T20:26:55.231Z,49.70
2023-05-12T20:29:56.561Z,49.60
2023-05-12T20:32:57.868Z,49.80
2023-05-12T20:36:01.153Z,49.90
2023-05-12T20:39:03.800Z,49.70
2023-05-12T20:42:05.672Z,49.80
2023-05-12T20:45:07.907Z,49.50
2023-05-12T20:48:09.703Z,49.80
2023-05-12T20:51:11.906Z,49.90
2023-05-12T20:54:13.374Z,50.10
2023-05-12T20:57:17.430Z,49.90
2023-05-12T21:00:18.841Z,50.00
2023-05-12T21:03:24.746Z,50.20
2023-05-12T21:06:26.789Z,50.10
2023-05-12T21:09:28.065Z,50.00
2023-05-12T21:12:29.526Z,49.90
2023-05-12T21:15:30.789Z,50.00
2023-05-12T21:18:32.633Z,49.90
2023-05-12T21:21:34.624Z,50.00
2023-05-12T21:24:37.177Z,50.10
2023-05-12T21:27:39.816Z,51.20
2023-05-12T21:30:41.137Z,50.30
2023-05-12T21:33:42.362Z,50.50
2023-05-12T21:36:44.559Z,50.20
2023-05-12T21:39:45.827Z,50.20
2023-05-12T21:42:47.413Z,50.50
2023-05-12T21:45:48.914Z,50.30
2023-05-12T21:48:53.351Z,50.60
2023-05-12T21:51:55.285Z,48.60
2023-05-12T21:54:56.716Z,50.80
2023-05-12T21:57:58.095Z,50.40
2023-05-12T22:00:59.391Z,50.40
2023-05-12T22:04:00.703Z,51.30
2023-05-12T22:07:02.698Z,50.70
2023-05-12T22:10:04.244Z,50.50
2023-05-12T22:13:05.667Z,50.50
2023-05-12T22:16:10.045Z,50.60
2023-05-12T22:19:11.866Z,48.80
2023-05-12T22:22:13.883Z,50.80
2023-05-12T22:25:15.417Z,50.80
2023-05-12T22:28:17.192Z,50.60
2023-05-12T22:31:19.131Z,50.80
2023-05-12T22:34:20.387Z,50.60
2023-05-12T22:37:22.203Z,51.00
2023-05-12T22:40:23.548Z,50.90
2023-05-12T22:43:24.905Z,50.60
2023-05-12T22:46:26.365Z,50.80
2023-05-12T22:49:27.758Z,51.10
2023-05-12T22:52:29.589Z,51.10
2023-05-12T22:55:31.147Z,51.10
2023-05-12T22:58:32.458Z,50.90
2023-05-12T23:01:33.816Z,51.00
2023-05-12T23:04:35.086Z,51.30
2023-05-12T23:07:36.955Z,51.20
2023-05-12T23:10:38.195Z,51.00
2023-05-12T23:13:39.435Z,50.90
2023-05-12T23:16:40.734Z,51.10
2023-05-12T23:19:42.073Z,51.20
2023-05-12T23:22:43.898Z,51.20
2023-05-12T23:25:46.260Z,51.20
2023-05-12T23:28:50.258Z,51.30
2023-05-12T23:31:51.733Z,51.10
2023-05-12T23:34:53.110Z,51.10
2023-05-12T23:37:55.010Z,51.30
2023-05-12T23:40:56.313Z,51.20
2023-05-12T23:43:57.606Z,51.20
2023-05-12T23:46:58.878Z,51.20
2023-05-12T23:50:00.225Z,51.30
2023-05-12T23:53:02.083Z,51.30
2023-05-12T23:56:03.571Z,51.30
2023-05-12T23:59:04.976Z,51.40
